sensor_id;sensor_type;location;lat;lon;timestamp;pressure;altitude;pressure_sealevel;temperature;humidity
41230;BME280;26964;50.428;19.218;2023-03-22T00:01:32;1017.9;;;6.5;78.2
41230;BME280;26964;50.428;19.218;2023-03-22T00:06:32;1017.8;;;6.5;78.2
41230;BME280;26964;50.428;19.218;2023-03-22T00:11:33;1017.9;;;6.5;78.2
41230;BME280;26964;50.428;19.218;2023-03-22T00:16:31;1017.7;;;6.5;78.1
41230;BME280;26964;50.428;19.218;2023-03-22T00:21:33;1017.7;;;6.4;78.0
41230;BME280;26964;50.428;19.218;2023-03-22T00:26:32;1017.9;;;6.3;78.1
41230;BME280;26964;50.428;19.218;2023-03-22T00:31:32;1017.8;;;6.3;78.2
41230;BME280;26964;50.428;19.218;2023-03-22T00:36:32;1017.7;;;6.2;78.2
41230;BME280;26964;50.428;19.218;2023-03-22T00:41:32;1017.6;;;6.1;78.2
41230;BME280;26964;50.428;19.218;2023-03-22T00:46:32;1017.6;;;6.0;78.2
41230;BME280;26964;50.428;19.218;2023-03-22T00:51:31;1017.6;;;5.8;78.1
41230;BME280;26964;50.428;19.218;2023-03-22T00:56:32;1017.6;;;5.7;78.0
41230;BME280;26964;50.428;19.218;2023-03-22T01:01:32;1017.5;;;5.6;78.1
41230;BME280;26964;50.428;19.218;2023-03-22T01:06:33;1017.5;;;5.4;78.2
41230;BME280;26964;50.428;19.218;2023-03-22T01:11:32;1017.5;;;5.3;78.2
41230;BME280;26964;50.428;19.218;2023-03-22T01:16:31;1017.5;;;5.2;78.1
41230;BME280;26964;50.428;19.218;2023-03-22T01:21:32;1017.5;;;5.1;78.1
41230;BME280;26964;50.428;19.218;2023-03-22T01:26:32;1017.3;;;5.1;78.2
41230;BME280;26964;50.428;19.218;2023-03-22T01:31:32;1017.3;;;5.1;78.3
41230;BME280;26964;50.428;19.218;2023-03-22T01:36:32;1017.1;;;5.0;78.3
41230;BME280;26964;50.428;19.218;2023-03-22T01:41:32;1016.9;;;4.9;78.3
41230;BME280;26964;50.428;19.218;2023-03-22T01:46:32;1017.0;;;4.9;78.4
41230;BME280;26964;50.428;19.218;2023-03-22T01:51:32;1017.0;;;4.9;78.5
41230;BME280;26964;50.428;19.218;2023-03-22T01:56:36;1017.1;;;4.8;78.5
41230;BME280;26964;50.428;19.218;2023-03-22T02:01:33;1017.1;;;4.8;78.6
41230;BME280;26964;50.428;19.218;2023-03-22T02:06:33;1017.0;;;4.7;78.6
41230;BME280;26964;50.428;19.218;2023-03-22T02:11:34;1017.0;;;4.7;78.6
41230;BME280;26964;50.428;19.218;2023-03-22T02:16:37;1016.9;;;4.6;78.6
41230;BME280;26964;50.428;19.218;2023-03-22T02:46:36;1016.6;;;3.9;78.6
41230;BME280;26964;50.428;19.218;2023-03-22T02:51:34;1016.7;;;3.8;78.8
41230;BME280;26964;50.428;19.218;2023-03-22T02:56:33;1016.7;;;3.7;78.9
41230;BME280;26964;50.428;19.218;2023-03-22T03:01:36;1016.7;;;3.7;78.9
41230;BME280;26964;50.428;19.218;2023-03-22T03:06:34;1016.7;;;3.7;78.5
41230;BME280;26964;50.428;19.218;2023-03-22T03:11:31;1016.7;;;3.5;78.6
41230;BME280;26964;50.428;19.218;2023-03-22T03:16:32;1016.7;;;3.5;78.6
41230;BME280;26964;50.428;19.218;2023-03-22T03:21:35;1016.7;;;3.4;78.6
41230;BME280;26964;50.428;19.218;2023-03-22T03:26:37;1016.8;;;3.3;78.7
41230;BME280;26964;50.428;19.218;2023-03-22T03:31:35;1016.8;;;3.3;78.7
41230;BME280;26964;50.428;19.218;2023-03-22T03:36:33;1016.8;;;3.3;78.9
41230;BME280;26964;50.428;19.218;2023-03-22T03:41:31;1016.8;;;3.4;78.9
41230;BME280;26964;50.428;19.218;2023-03-22T03:46:32;1016.8;;;3.5;78.9
41230;BME280;26964;50.428;19.218;2023-03-22T03:51:32;1016.9;;;3.5;78.9
41230;BME280;26964;50.428;19.218;2023-03-22T03:56:31;1016.8;;;3.5;79.0
41230;BME280;26964;50.428;19.218;2023-03-22T04:01:32;1016.9;;;3.6;79.0
41230;BME280;26964;50.428;19.218;2023-03-22T04:06:32;1016.9;;;3.7;79.1
41230;BME280;26964;50.428;19.218;2023-03-22T04:11:32;1016.9;;;3.7;79.1
41230;BME280;26964;50.428;19.218;2023-03-22T04:16:32;1016.7;;;3.8;79.1
41230;BME280;26964;50.428;19.218;2023-03-22T04:21:32;1016.8;;;3.8;79.1
41230;BME280;26964;50.428;19.218;2023-03-22T04:26:32;1016.8;;;3.8;79.0
41230;BME280;26964;50.428;19.218;2023-03-22T04:31:32;1016.9;;;3.8;79.1
41230;BME280;26964;50.428;19.218;2023-03-22T04:36:33;1016.8;;;3.8;79.2
41230;BME280;26964;50.428;19.218;2023-03-22T04:41:32;1016.9;;;3.8;79.2
41230;BME280;26964;50.428;19.218;2023-03-22T04:46:33;1016.8;;;3.8;79.1
41230;BME280;26964;50.428;19.218;2023-03-22T04:51:31;1016.7;;;3.9;79.2
41230;BME280;26964;50.428;19.218;2023-03-22T04:56:31;1016.8;;;3.9;79.2
41230;BME280;26964;50.428;19.218;2023-03-22T05:01:32;1016.8;;;3.9;79.3
41230;BME280;26964;50.428;19.218;2023-03-22T05:06:31;1016.8;;;4.0;79.3
41230;BME280;26964;50.428;19.218;2023-03-22T05:11:32;1016.9;;;4.1;79.4
41230;BME280;26964;50.428;19.218;2023-03-22T05:16:32;1016.8;;;4.2;79.5
41230;BME280;26964;50.428;19.218;2023-03-22T05:21:31;1016.8;;;4.2;79.5
41230;BME280;26964;50.428;19.218;2023-03-22T05:26:32;1016.8;;;4.3;79.5
41230;BME280;26964;50.428;19.218;2023-03-22T05:31:31;1016.8;;;4.3;79.5
41230;BME280;26964;50.428;19.218;2023-03-22T05:36:32;1016.8;;;4.4;79.5
41230;BME280;26964;50.428;19.218;2023-03-22T05:41:32;1016.8;;;4.5;79.6
41230;BME280;26964;50.428;19.218;2023-03-22T05:46:31;1016.8;;;4.5;79.6
41230;BME280;26964;50.428;19.218;2023-03-22T05:51:32;1016.7;;;4.5;79.6
41230;BME280;26964;50.428;19.218;2023-03-22T05:56:32;1016.9;;;4.6;79.6
41230;BME280;26964;50.428;19.218;2023-03-22T06:01:31;1016.8;;;4.6;79.7
41230;BME280;26964;50.428;19.218;2023-03-22T06:06:31;1016.8;;;4.7;79.7
41230;BME280;26964;50.428;19.218;2023-03-22T06:11:32;1016.9;;;4.8;79.7
41230;BME280;26964;50.428;19.218;2023-03-22T06:16:32;1017.0;;;4.8;79.7
41230;BME280;26964;50.428;19.218;2023-03-22T06:21:31;1016.9;;;4.9;79.7
41230;BME280;26964;50.428;19.218;2023-03-22T06:26:32;1016.9;;;4.9;79.8
41230;BME280;26964;50.428;19.218;2023-03-22T06:31:32;1016.9;;;5.0;79.9
41230;BME280;26964;50.428;19.218;2023-03-22T06:36:32;1016.9;;;5.1;79.9
41230;BME280;26964;50.428;19.218;2023-03-22T06:41:32;1016.9;;;5.2;79.9
41230;BME280;26964;50.428;19.218;2023-03-22T06:46:32;1016.9;;;5.2;79.9
41230;BME280;26964;50.428;19.218;2023-03-22T06:51:31;1016.9;;;5.3;79.9
41230;BME280;26964;50.428;19.218;2023-03-22T06:56:31;1017.0;;;5.4;80.0
41230;BME280;26964;50.428;19.218;2023-03-22T07:01:30;1017.0;;;5.4;80.0
41230;BME280;26964;50.428;19.218;2023-03-22T07:06:31;1017.0;;;5.5;80.1
41230;BME280;26964;50.428;19.218;2023-03-22T07:11:32;1016.9;;;5.6;80.2
41230;BME280;26964;50.428;19.218;2023-03-22T07:16:31;1017.0;;;5.7;80.3
41230;BME280;26964;50.428;19.218;2023-03-22T07:21:31;1017.0;;;5.9;80.3
41230;BME280;26964;50.428;19.218;2023-03-22T07:26:30;1017.0;;;5.9;80.3
41230;BME280;26964;50.428;19.218;2023-03-22T07:31:31;1017.0;;;6.0;80.4
41230;BME280;26964;50.428;19.218;2023-03-22T07:36:31;1017.0;;;6.1;80.4
41230;BME280;26964;50.428;19.218;2023-03-22T07:41:31;1017.0;;;6.2;80.4
41230;BME280;26964;50.428;19.218;2023-03-22T07:46:31;1017.0;;;6.3;80.4
41230;BME280;26964;50.428;19.218;2023-03-22T07:51:31;1016.9;;;6.5;80.4
41230;BME280;26964;50.428;19.218;2023-03-22T07:56:31;1016.9;;;6.6;80.5
41230;BME280;26964;50.428;19.218;2023-03-22T08:01:31;1016.9;;;6.9;80.6
41230;BME280;26964;50.428;19.218;2023-03-22T08:06:31;1016.9;;;7.1;80.6
41230;BME280;26964;50.428;19.218;2023-03-22T08:11:31;1016.9;;;7.3;80.5
41230;BME280;26964;50.428;19.218;2023-03-22T08:16:32;1016.8;;;7.5;80.5
41230;BME280;26964;50.428;19.218;2023-03-22T08:21:32;1016.8;;;7.7;80.5
41230;BME280;26964;50.428;19.218;2023-03-22T08:26:31;1016.8;;;7.9;80.4
41230;BME280;26964;50.428;19.218;2023-03-22T08:31:31;1016.7;;;8.1;80.3
41230;BME280;26964;50.428;19.218;2023-03-22T08:36:31;1016.6;;;8.3;80.3
41230;BME280;26964;50.428;19.218;2023-03-22T08:41:30;1016.7;;;8.5;80.3
41230;BME280;26964;50.428;19.218;2023-03-22T08:46:31;1016.7;;;8.7;80.3
41230;BME280;26964;50.428;19.218;2023-03-22T08:51:31;1016.7;;;8.9;80.1
41230;BME280;26964;50.428;19.218;2023-03-22T08:56:30;1016.7;;;9.0;79.8
41230;BME280;26964;50.428;19.218;2023-03-22T09:01:31;1016.5;;;9.1;79.9
41230;BME280;26964;50.428;19.218;2023-03-22T09:06:30;1016.5;;;9.2;79.9
41230;BME280;26964;50.428;19.218;2023-03-22T09:11:31;1016.5;;;9.4;79.9
41230;BME280;26964;50.428;19.218;2023-03-22T09:16:31;1016.4;;;9.7;79.8
41230;BME280;26964;50.428;19.218;2023-03-22T09:21:30;1016.4;;;9.9;79.8
41230;BME280;26964;50.428;19.218;2023-03-22T09:26:31;1016.3;;;10.2;79.7
41230;BME280;26964;50.428;19.218;2023-03-22T09:31:31;1016.3;;;10.5;79.5
41230;BME280;26964;50.428;19.218;2023-03-22T09:36:30;1016.4;;;10.8;79.2
41230;BME280;26964;50.428;19.218;2023-03-22T09:41:35;1016.4;;;11.1;78.8
41230;BME280;26964;50.428;19.218;2023-03-22T09:46:35;1016.3;;;11.2;78.6
41230;BME280;26964;50.428;19.218;2023-03-22T09:51:36;1016.3;;;11.3;78.2
41230;BME280;26964;50.428;19.218;2023-03-22T09:56:31;1016.2;;;11.5;77.9
41230;BME280;26964;50.428;19.218;2023-03-22T10:01:35;1016.3;;;11.6;78.0
41230;BME280;26964;50.428;19.218;2023-03-22T10:06:31;1016.3;;;11.7;77.9
41230;BME280;26964;50.428;19.218;2023-03-22T10:16:33;1016.1;;;12.1;77.6
41230;BME280;26964;50.428;19.218;2023-03-22T10:21:31;1016.0;;;12.3;77.6
41230;BME280;26964;50.428;19.218;2023-03-22T10:26:33;1016.0;;;12.6;76.9
41230;BME280;26964;50.428;19.218;2023-03-22T10:31:32;1015.9;;;13.0;76.8
41230;BME280;26964;50.428;19.218;2023-03-22T10:36:39;1015.9;;;13.5;76.5
41230;BME280;26964;50.428;19.218;2023-03-22T10:41:32;1015.8;;;13.9;75.9
41230;BME280;26964;50.428;19.218;2023-03-22T10:46:33;1015.8;;;14.3;76.0
41230;BME280;26964;50.428;19.218;2023-03-22T10:51:37;1015.8;;;14.5;75.2
41230;BME280;26964;50.428;19.218;2023-03-22T10:56:30;1015.7;;;14.6;74.6
41230;BME280;26964;50.428;19.218;2023-03-22T11:01:32;1015.7;;;14.5;74.6
41230;BME280;26964;50.428;19.218;2023-03-22T11:06:32;1015.7;;;14.5;74.4
41230;BME280;26964;50.428;19.218;2023-03-22T11:11:35;1015.6;;;14.5;74.2
41230;BME280;26964;50.428;19.218;2023-03-22T11:16:39;1015.5;;;14.4;73.7
41230;BME280;26964;50.428;19.218;2023-03-22T11:21:31;1015.4;;;14.4;73.8
41230;BME280;26964;50.428;19.218;2023-03-22T11:26:33;1015.4;;;14.4;73.5
41230;BME280;26964;50.428;19.218;2023-03-22T11:36:35;1015.3;;;14.7;73.5
41230;BME280;26964;50.428;19.218;2023-03-22T11:41:35;1015.4;;;15.0;73.3
41230;BME280;26964;50.428;19.218;2023-03-22T11:46:31;1015.3;;;15.0;72.5
41230;BME280;26964;50.428;19.218;2023-03-22T11:51:31;1015.2;;;15.0;72.5
41230;BME280;26964;50.428;19.218;2023-03-22T11:56:30;1015.2;;;14.9;72.4
41230;BME280;26964;50.428;19.218;2023-03-22T12:01:53;1015.1;;;15.0;72.5
41230;BME280;26964;50.428;19.218;2023-03-22T12:06:32;1015.0;;;15.3;72.2
41230;BME280;26964;50.428;19.218;2023-03-22T12:11:33;1015.0;;;15.4;72.0
41230;BME280;26964;50.428;19.218;2023-03-22T12:16:36;1015.0;;;15.6;71.8
41230;BME280;26964;50.428;19.218;2023-03-22T12:21:30;1014.9;;;15.8;71.5
41230;BME280;26964;50.428;19.218;2023-03-22T12:26:32;1014.8;;;16.0;70.7
41230;BME280;26964;50.428;19.218;2023-03-22T12:31:37;1014.9;;;16.0;70.1
41230;BME280;26964;50.428;19.218;2023-03-22T12:36:36;1014.7;;;16.0;70.3
41230;BME280;26964;50.428;19.218;2023-03-22T12:41:35;1014.8;;;16.0;69.9
41230;BME280;26964;50.428;19.218;2023-03-22T12:46:34;1014.8;;;16.2;69.8
41230;BME280;26964;50.428;19.218;2023-03-22T12:51:30;1014.7;;;16.5;69.6
41230;BME280;26964;50.428;19.218;2023-03-22T12:56:35;1014.7;;;16.5;68.5
41230;BME280;26964;50.428;19.218;2023-03-22T13:01:35;1014.7;;;16.4;68.4
41230;BME280;26964;50.428;19.218;2023-03-22T13:06:33;1014.6;;;16.4;67.8
41230;BME280;26964;50.428;19.218;2023-03-22T13:11:30;1014.5;;;16.4;67.9
41230;BME280;26964;50.428;19.218;2023-03-22T13:21:32;1014.4;;;16.8;67.2
41230;BME280;26964;50.428;19.218;2023-03-22T13:26:34;1014.4;;;16.9;66.9
41230;BME280;26964;50.428;19.218;2023-03-22T13:31:36;1014.3;;;17.0;66.1
41230;BME280;26964;50.428;19.218;2023-03-22T13:36:30;1014.3;;;17.0;66.1
41230;BME280;26964;50.428;19.218;2023-03-22T13:41:46;1014.3;;;17.1;66.0
41230;BME280;26964;50.428;19.218;2023-03-22T13:51:31;1014.3;;;17.3;64.8
41230;BME280;26964;50.428;19.218;2023-03-22T13:56:33;1014.2;;;17.3;64.9
41230;BME280;26964;50.428;19.218;2023-03-22T14:01:32;1014.1;;;17.3;64.6
41230;BME280;26964;50.428;19.218;2023-03-22T14:06:33;1014.2;;;17.2;64.1
41230;BME280;26964;50.428;19.218;2023-03-22T14:11:35;1014.2;;;17.0;64.0
41230;BME280;26964;50.428;19.218;2023-03-22T14:16:35;1014.0;;;16.9;63.8
41230;BME280;26964;50.428;19.218;2023-03-22T14:21:33;1014.0;;;16.8;63.8
41230;BME280;26964;50.428;19.218;2023-03-22T14:26:31;1014.0;;;16.6;63.6
41230;BME280;26964;50.428;19.218;2023-03-22T14:31:31;1013.9;;;16.6;63.5
41230;BME280;26964;50.428;19.218;2023-03-22T14:36:35;1013.9;;;16.6;63.1
41230;BME280;26964;50.428;19.218;2023-03-22T14:41:30;1013.9;;;16.6;63.2
41230;BME280;26964;50.428;19.218;2023-03-22T14:46:32;1013.8;;;16.6;62.6
41230;BME280;26964;50.428;19.218;2023-03-22T14:51:35;1013.8;;;16.6;62.5
41230;BME280;26964;50.428;19.218;2023-03-22T14:56:32;1013.8;;;16.5;62.5
41230;BME280;26964;50.428;19.218;2023-03-22T15:01:35;1013.8;;;16.4;62.5
41230;BME280;26964;50.428;19.218;2023-03-22T15:06:38;1013.8;;;16.4;62.3
41230;BME280;26964;50.428;19.218;2023-03-22T15:11:31;1013.7;;;16.3;62.2
41230;BME280;26964;50.428;19.218;2023-03-22T15:16:32;1013.6;;;16.2;62.0
41230;BME280;26964;50.428;19.218;2023-03-22T15:21:30;1013.7;;;16.1;61.8
41230;BME280;26964;50.428;19.218;2023-03-22T15:26:30;1013.6;;;16.1;61.6
41230;BME280;26964;50.428;19.218;2023-03-22T15:31:32;1013.7;;;16.0;61.6
41230;BME280;26964;50.428;19.218;2023-03-22T15:36:32;1013.6;;;15.9;61.6
41230;BME280;26964;50.428;19.218;2023-03-22T15:41:34;1013.6;;;15.8;61.5
41230;BME280;26964;50.428;19.218;2023-03-22T15:51:32;1013.6;;;15.6;61.4
41230;BME280;26964;50.428;19.218;2023-03-22T15:56:31;1013.6;;;15.4;61.5
41230;BME280;26964;50.428;19.218;2023-03-22T16:01:34;1013.6;;;15.3;61.4
41230;BME280;26964;50.428;19.218;2023-03-22T16:06:31;1013.6;;;15.2;61.5
41230;BME280;26964;50.428;19.218;2023-03-22T16:11:30;1013.5;;;15.1;61.5
41230;BME280;26964;50.428;19.218;2023-03-22T16:16:31;1013.5;;;15.0;61.6
41230;BME280;26964;50.428;19.218;2023-03-22T16:21:31;1013.5;;;14.9;61.6
41230;BME280;26964;50.428;19.218;2023-03-22T16:26:30;1013.4;;;14.7;61.6
41230;BME280;26964;50.428;19.218;2023-03-22T16:31:30;1013.5;;;14.6;61.7
41230;BME280;26964;50.428;19.218;2023-03-22T16:36:30;1013.4;;;14.5;61.7
41230;BME280;26964;50.428;19.218;2023-03-22T16:41:30;1013.5;;;14.3;61.7
41230;BME280;26964;50.428;19.218;2023-03-22T16:46:30;1013.4;;;14.1;61.7
41230;BME280;26964;50.428;19.218;2023-03-22T16:51:34;1013.4;;;13.9;61.8
41230;BME280;26964;50.428;19.218;2023-03-22T16:56:30;1013.4;;;13.7;61.8
41230;BME280;26964;50.428;19.218;2023-03-22T17:01:30;1013.6;;;13.6;61.9
41230;BME280;26964;50.428;19.218;2023-03-22T17:06:33;1013.5;;;13.4;61.9
41230;BME280;26964;50.428;19.218;2023-03-22T17:11:30;1013.6;;;13.2;62.0
41230;BME280;26964;50.428;19.218;2023-03-22T17:16:30;1013.5;;;13.1;62.1
41230;BME280;26964;50.428;19.218;2023-03-22T17:21:30;1013.6;;;12.9;62.2
41230;BME280;26964;50.428;19.218;2023-03-22T17:26:30;1013.7;;;12.8;62.2
41230;BME280;26964;50.428;19.218;2023-03-22T17:31:30;1013.7;;;12.6;62.3
41230;BME280;26964;50.428;19.218;2023-03-22T17:36:30;1013.7;;;12.5;62.4
41230;BME280;26964;50.428;19.218;2023-03-22T17:41:30;1013.7;;;12.4;62.5
41230;BME280;26964;50.428;19.218;2023-03-22T17:46:30;1013.8;;;12.3;62.6
41230;BME280;26964;50.428;19.218;2023-03-22T17:51:30;1013.8;;;12.2;62.7
41230;BME280;26964;50.428;19.218;2023-03-22T17:56:30;1013.9;;;12.2;62.8
41230;BME280;26964;50.428;19.218;2023-03-22T18:01:30;1013.9;;;12.1;62.9
41230;BME280;26964;50.428;19.218;2023-03-22T18:06:30;1013.9;;;12.0;62.9
41230;BME280;26964;50.428;19.218;2023-03-22T18:11:30;1014.0;;;11.9;62.9
41230;BME280;26964;50.428;19.218;2023-03-22T18:16:30;1014.0;;;11.8;63.0
41230;BME280;26964;50.428;19.218;2023-03-22T18:21:33;1013.9;;;11.7;63.1
41230;BME280;26964;50.428;19.218;2023-03-22T18:26:30;1013.9;;;11.6;63.2
41230;BME280;26964;50.428;19.218;2023-03-22T18:31:30;1014.0;;;11.5;63.3
41230;BME280;26964;50.428;19.218;2023-03-22T18:36:30;1014.0;;;11.4;63.4
41230;BME280;26964;50.428;19.218;2023-03-22T18:41:31;1013.9;;;11.3;63.5
41230;BME280;26964;50.428;19.218;2023-03-22T18:46:30;1013.9;;;11.2;63.6
41230;BME280;26964;50.428;19.218;2023-03-22T18:51:30;1013.9;;;11.2;63.7
41230;BME280;26964;50.428;19.218;2023-03-22T18:56:31;1013.9;;;11.1;63.8
41230;BME280;26964;50.428;19.218;2023-03-22T19:01:30;1013.9;;;11.0;63.8
41230;BME280;26964;50.428;19.218;2023-03-22T19:06:29;1013.8;;;10.9;63.9
41230;BME280;26964;50.428;19.218;2023-03-22T19:11:30;1013.9;;;10.9;64.1
41230;BME280;26964;50.428;19.218;2023-03-22T19:16:30;1013.9;;;10.9;64.2
41230;BME280;26964;50.428;19.218;2023-03-22T19:21:30;1013.9;;;10.8;64.2
41230;BME280;26964;50.428;19.218;2023-03-22T19:26:30;1013.9;;;10.8;64.4
41230;BME280;26964;50.428;19.218;2023-03-22T19:31:30;1013.8;;;10.8;64.5
41230;BME280;26964;50.428;19.218;2023-03-22T19:36:30;1013.9;;;10.8;64.5
41230;BME280;26964;50.428;19.218;2023-03-22T19:41:32;1013.9;;;10.7;64.6
41230;BME280;26964;50.428;19.218;2023-03-22T19:46:35;1013.9;;;10.7;64.6
41230;BME280;26964;50.428;19.218;2023-03-22T19:51:29;1013.9;;;10.6;64.7
41230;BME280;26964;50.428;19.218;2023-03-22T19:56:29;1014.0;;;10.6;64.8
41230;BME280;26964;50.428;19.218;2023-03-22T20:01:30;1013.9;;;10.5;64.9
41230;BME280;26964;50.428;19.218;2023-03-22T20:06:29;1013.9;;;10.4;65.0
41230;BME280;26964;50.428;19.218;2023-03-22T20:11:30;1013.9;;;10.4;65.1
41230;BME280;26964;50.428;19.218;2023-03-22T20:16:30;1013.9;;;10.3;65.1
41230;BME280;26964;50.428;19.218;2023-03-22T20:21:29;1013.9;;;10.2;65.2
41230;BME280;26964;50.428;19.218;2023-03-22T20:26:29;1013.9;;;10.2;65.3
41230;BME280;26964;50.428;19.218;2023-03-22T20:31:30;1013.9;;;10.1;65.3
41230;BME280;26964;50.428;19.218;2023-03-22T20:36:29;1013.9;;;10.0;65.5
41230;BME280;26964;50.428;19.218;2023-03-22T20:41:30;1013.9;;;9.9;65.5
41230;BME280;26964;50.428;19.218;2023-03-22T20:46:29;1013.9;;;9.8;65.6
41230;BME280;26964;50.428;19.218;2023-03-22T20:51:29;1014.0;;;9.7;65.7
41230;BME280;26964;50.428;19.218;2023-03-22T20:56:30;1013.9;;;9.7;65.9
41230;BME280;26964;50.428;19.218;2023-03-22T21:01:30;1013.9;;;9.6;66.0
41230;BME280;26964;50.428;19.218;2023-03-22T21:06:29;1013.8;;;9.6;66.1
41230;BME280;26964;50.428;19.218;2023-03-22T21:11:30;1013.8;;;9.5;66.2
41230;BME280;26964;50.428;19.218;2023-03-22T21:16:29;1013.9;;;9.5;66.3
41230;BME280;26964;50.428;19.218;2023-03-22T21:21:29;1013.8;;;9.4;66.4
41230;BME280;26964;50.428;19.218;2023-03-22T21:26:30;1013.9;;;9.4;66.5
41230;BME280;26964;50.428;19.218;2023-03-22T21:31:30;1014.0;;;9.4;66.5
41230;BME280;26964;50.428;19.218;2023-03-22T21:36:29;1013.8;;;9.3;66.6
41230;BME280;26964;50.428;19.218;2023-03-22T21:41:30;1013.8;;;9.2;66.7
41230;BME280;26964;50.428;19.218;2023-03-22T21:46:29;1013.8;;;9.2;66.8
41230;BME280;26964;50.428;19.218;2023-03-22T21:51:30;1013.8;;;9.1;66.9
41230;BME280;26964;50.428;19.218;2023-03-22T21:56:30;1013.9;;;9.1;66.9
41230;BME280;26964;50.428;19.218;2023-03-22T22:01:30;1013.9;;;9.0;67.1
41230;BME280;26964;50.428;19.218;2023-03-22T22:06:29;1013.8;;;9.0;67.1
41230;BME280;26964;50.428;19.218;2023-03-22T22:11:30;1014.0;;;9.0;67.2
41230;BME280;26964;50.428;19.218;2023-03-22T22:16:29;1013.9;;;9.0;67.3
41230;BME280;26964;50.428;19.218;2023-03-22T22:21:29;1014.0;;;9.0;67.4
41230;BME280;26964;50.428;19.218;2023-03-22T22:26:30;1014.0;;;8.9;67.5
41230;BME280;26964;50.428;19.218;2023-03-22T22:31:30;1013.9;;;8.9;67.6
41230;BME280;26964;50.428;19.218;2023-03-22T22:36:30;1013.8;;;8.9;67.7
41230;BME280;26964;50.428;19.218;2023-03-22T22:41:29;1013.9;;;8.9;67.7
41230;BME280;26964;50.428;19.218;2023-03-22T22:46:29;1013.8;;;8.8;67.7
41230;BME280;26964;50.428;19.218;2023-03-22T22:51:41;1013.8;;;8.8;67.8
41230;BME280;26964;50.428;19.218;2023-03-22T22:56:30;1013.8;;;8.8;67.8
41230;BME280;26964;50.428;19.218;2023-03-22T23:01:30;1013.8;;;8.7;67.8
41230;BME280;26964;50.428;19.218;2023-03-22T23:06:29;1013.9;;;8.6;67.9
41230;BME280;26964;50.428;19.218;2023-03-22T23:11:29;1013.9;;;8.5;68.0
41230;BME280;26964;50.428;19.218;2023-03-22T23:16:29;1014.0;;;8.5;68.0
41230;BME280;26964;50.428;19.218;2023-03-22T23:21:31;1013.9;;;8.4;68.1
41230;BME280;26964;50.428;19.218;2023-03-22T23:26:29;1013.9;;;8.3;68.1
41230;BME280;26964;50.428;19.218;2023-03-22T23:31:29;1014.0;;;8.3;68.2
41230;BME280;26964;50.428;19.218;2023-03-22T23:36:31;1014.0;;;8.2;68.3
41230;BME280;26964;50.428;19.218;2023-03-22T23:41:30;1014.1;;;8.1;68.4
41230;BME280;26964;50.428;19.218;2023-03-22T23:46:29;1014.1;;;8.0;68.4
41230;BME280;26964;50.428;19.218;2023-03-22T23:51:30;1014.0;;;8.0;68.5
41230;BME280;26964;50.428;19.218;2023-03-22T23:56:30;1014.0;;;7.9;68.5
